createdAt,value
2019-02-08T00:01:32.585Z,46.37
2019-02-08T00:04:01.672Z,43.73
2019-02-08T00:06:30.702Z,44.17
2019-02-08T00:09:01.700Z,42.47
2019-02-08T00:11:30.794Z,46.63
2019-02-08T00:14:00.542Z,41.90
2019-02-08T00:16:29.763Z,44.47
2019-02-08T00:18:58.927Z,45.00
2019-02-08T00:21:28.148Z,45.60
2019-02-08T00:23:57.198Z,47.20
2019-02-08T00:26:26.334Z,46.87
2019-02-08T00:28:55.439Z,45.27
2019-02-08T00:31:24.840Z,48.23
2019-02-08T00:33:53.940Z,47.60
2019-02-08T00:36:22.881Z,46.80
2019-02-08T00:38:51.922Z,48.93
2019-02-08T00:41:21.149Z,46.87
2019-02-08T00:43:50.307Z,44.40
2019-02-08T00:46:19.343Z,47.00
2019-02-08T00:48:48.558Z,43.07
2019-02-08T00:51:17.690Z,45.53
2019-02-08T00:53:46.705Z,46.10
2019-02-08T00:56:15.728Z,44.53
2019-02-08T00:58:44.774Z,47.47
2019-02-08T01:01:13.801Z,47.43
2019-02-08T01:03:43.191Z,44.93
2019-02-08T01:06:12.216Z,43.23
2019-02-08T01:08:41.237Z,44.20
2019-02-08T01:11:10.369Z,44.00
2019-02-08T01:13:39.404Z,44.93
2019-02-08T01:16:08.492Z,45.87
2019-02-08T01:18:37.527Z,43.47
2019-02-08T01:21:07.077Z,46.90
2019-02-08T01:23:41.082Z,41.70
2019-02-08T01:26:06.990Z,44.03
2019-02-08T01:28:36.060Z,44.97
2019-02-08T01:31:05.190Z,44.60
2019-02-08T01:33:34.254Z,45.47
2019-02-08T01:36:03.269Z,45.67
2019-02-08T01:38:32.289Z,43.97
2019-02-08T01:41:01.346Z,44.83
2019-02-08T01:43:30.389Z,46.57
2019-02-08T01:45:59.397Z,43.43
2019-02-08T01:48:28.425Z,41.33
2019-02-08T01:50:57.466Z,43.57
2019-02-08T01:53:26.534Z,44.53
2019-02-08T01:55:55.633Z,42.97
2019-02-08T01:58:24.757Z,45.03
2019-02-08T02:00:53.766Z,42.47
2019-02-08T02:03:22.805Z,44.93
2019-02-08T02:05:52.241Z,42.63
2019-02-08T02:08:21.446Z,41.47
2019-02-08T02:10:50.636Z,40.13
2019-02-08T02:13:19.736Z,37.93
2019-02-08T02:15:48.813Z,40.03
2019-02-08T02:18:17.925Z,41.37
2019-02-08T02:20:46.913Z,36.60
2019-02-08T02:23:16.742Z,39.17
2019-02-08T02:25:46.556Z,40.37
2019-02-08T02:28:15.609Z,39.57
2019-02-08T02:30:44.642Z,37.77
2019-02-08T02:33:14.148Z,34.90
2019-02-08T02:35:44.257Z,37.23
2019-02-08T02:38:13.262Z,37.50
2019-02-08T02:40:42.256Z,39.00
2019-02-08T02:43:11.346Z,37.03
2019-02-08T02:45:40.702Z,37.03
2019-02-08T02:48:11.918Z,36.33
2019-02-08T02:50:41.101Z,37.10
2019-02-08T02:53:10.269Z,37.70
2019-02-08T02:55:39.429Z,35.90
2019-02-08T02:58:08.487Z,34.13
2019-02-08T03:00:43.223Z,37.07
2019-02-08T03:03:13.961Z,33.80
2019-02-08T03:05:43.122Z,35.77
2019-02-08T03:08:13.442Z,34.93
2019-02-08T03:10:42.502Z,33.67
2019-02-08T03:13:11.729Z,36.10
2019-02-08T03:15:40.921Z,34.63
2019-02-08T03:18:10.017Z,35.63
2019-02-08T03:20:39.050Z,35.73
2019-02-08T03:23:08.258Z,35.67
2019-02-08T03:25:37.275Z,36.53
2019-02-08T03:28:06.415Z,35.93
2019-02-08T03:30:39.642Z,35.83
2019-02-08T03:33:08.714Z,34.87
2019-02-08T03:35:37.922Z,37.00
2019-02-08T03:38:07.203Z,36.70
2019-02-08T03:40:36.376Z,39.53
2019-02-08T03:43:05.454Z,39.03
2019-02-08T03:45:38.425Z,39.00
2019-02-08T03:48:07.652Z,38.37
2019-02-08T03:50:36.711Z,39.67
2019-02-08T03:53:06.390Z,39.90
2019-02-08T03:55:35.444Z,38.43
2019-02-08T03:58:05.177Z,36.50
2019-02-08T04:00:38.970Z,40.73
2019-02-08T04:03:07.990Z,42.80
2019-02-08T04:05:37.151Z,46.00
2019-02-08T04:08:06.347Z,46.97
2019-02-08T04:10:35.801Z,45.23
2019-02-08T04:13:04.825Z,44.53
2019-02-08T04:15:34.005Z,46.83
2019-02-08T04:18:03.142Z,44.83
2019-02-08T04:20:32.203Z,44.27
2019-02-08T04:23:01.231Z,43.53
2019-02-08T04:25:34.657Z,43.47
2019-02-08T04:28:03.672Z,42.37
2019-02-08T04:30:33.150Z,43.73
2019-02-08T04:33:02.597Z,45.40
2019-02-08T04:35:31.645Z,45.77
2019-02-08T04:38:01.039Z,43.43
2019-02-08T04:40:30.145Z,46.03
2019-02-08T04:42:59.191Z,47.63
2019-02-08T04:45:28.592Z,48.27
2019-02-08T04:47:57.777Z,47.40
2019-02-08T04:50:27.158Z,49.47
2019-02-08T04:52:56.630Z,46.73
2019-02-08T04:55:25.944Z,41.87
2019-02-08T04:57:55.095Z,45.60
2019-02-08T05:00:32.567Z,45.20
2019-02-08T05:03:01.671Z,44.57
2019-02-08T05:05:30.780Z,45.57
2019-02-08T05:07:59.992Z,48.73
2019-02-08T05:10:30.548Z,48.00
2019-02-08T05:12:59.639Z,50.37
2019-02-08T05:15:28.947Z,49.17
2019-02-08T05:17:58.035Z,49.97
2019-02-08T05:20:28.003Z,49.80
2019-02-08T05:22:57.088Z,47.70
2019-02-08T05:25:26.222Z,45.17
2019-02-08T05:27:55.244Z,46.67
2019-02-08T05:30:29.575Z,41.67
2019-02-08T05:32:58.629Z,41.93
2019-02-08T05:35:28.306Z,43.47
2019-02-08T05:37:57.398Z,43.00
2019-02-08T05:40:26.535Z,45.23
2019-02-08T05:42:55.646Z,46.77
2019-02-08T05:45:25.280Z,46.77
2019-02-08T05:47:54.514Z,43.43
2019-02-08T05:50:25.701Z,42.80
2019-02-08T05:52:54.798Z,42.17
2019-02-08T05:55:25.872Z,41.73
2019-02-08T05:57:54.925Z,44.87
2019-02-08T06:00:30.686Z,47.80
2019-02-08T06:02:59.755Z,49.83
2019-02-08T06:05:28.766Z,46.53
2019-02-08T06:07:57.786Z,47.13
2019-02-08T06:10:26.959Z,45.93
2019-02-08T06:12:56.054Z,47.50
2019-02-08T06:15:25.382Z,46.60
2019-02-08T06:17:59.990Z,46.40
2019-02-08T06:20:29.110Z,44.47
2019-02-08T06:22:58.122Z,46.37
2019-02-08T06:25:27.940Z,47.83
2019-02-08T06:27:57.054Z,48.20
2019-02-08T06:30:26.169Z,42.57
2019-02-08T06:32:55.286Z,46.13
2019-02-08T06:35:24.721Z,45.80
2019-02-08T06:37:53.917Z,46.00
2019-02-08T06:40:24.277Z,43.63
2019-02-08T06:42:53.755Z,45.77
2019-02-08T06:45:23.702Z,47.87
2019-02-08T06:47:52.830Z,50.20
2019-02-08T06:50:23.415Z,48.13
2019-02-08T06:52:54.508Z,46.60
2019-02-08T06:55:23.810Z,47.10
2019-02-08T06:58:02.793Z,46.13
2019-02-08T07:00:36.237Z,46.50
2019-02-08T07:03:16.007Z,47.17
2019-02-08T07:06:03.106Z,46.50
2019-02-08T07:08:50.013Z,46.10
2019-02-08T07:11:25.054Z,44.93
2019-02-08T07:14:10.548Z,47.33
2019-02-08T07:16:58.665Z,46.90
2019-02-08T07:19:49.535Z,47.10
2019-02-08T07:22:27.733Z,47.30
2019-02-08T07:25:27.186Z,52.47
2019-02-08T07:28:02.837Z,51.10
2019-02-08T07:30:56.700Z,50.97
2019-02-08T07:33:44.817Z,47.83
2019-02-08T07:36:33.531Z,50.03
2019-02-08T07:39:14.962Z,52.27
2019-02-08T07:41:59.992Z,49.13
2019-02-08T07:44:40.134Z,47.93
2019-02-08T07:47:36.547Z,49.67
2019-02-08T07:50:30.381Z,46.37
2019-02-08T07:53:14.815Z,47.13
2019-02-08T07:56:03.154Z,46.07
2019-02-08T07:58:50.710Z,47.10
2019-02-08T08:01:42.069Z,46.47
2019-02-08T08:04:33.052Z,46.70
2019-02-08T08:07:20.140Z,46.70
2019-02-08T08:10:08.311Z,43.53
2019-02-08T08:12:55.113Z,48.67
2019-02-08T08:15:46.703Z,46.30
2019-02-08T08:18:40.697Z,46.13
2019-02-08T08:21:31.873Z,44.90
2019-02-08T08:24:23.573Z,45.93
2019-02-08T08:27:11.261Z,42.87
2019-02-08T08:29:58.898Z,43.13
2019-02-08T08:32:55.365Z,40.77
2019-02-08T08:36:00.220Z,41.47
2019-02-08T08:39:19.309Z,39.87
2019-02-08T08:42:21.182Z,41.40
2019-02-08T08:45:18.162Z,42.30
2019-02-08T08:48:28.390Z,41.73
2019-02-08T08:51:37.362Z,40.20
2019-02-08T08:54:47.789Z,40.20
2019-02-08T08:58:08.047Z,37.37
2019-02-08T09:01:33.287Z,37.63
2019-02-08T09:04:25.154Z,39.60
2019-02-08T09:07:22.006Z,37.63
2019-02-08T09:10:31.805Z,36.23
2019-02-08T09:13:39.884Z,33.43
2019-02-08T09:16:59.267Z,27.63
2019-02-08T09:20:01.239Z,26.97
2019-02-08T09:23:07.678Z,27.27
2019-02-08T09:26:22.130Z,27.83
2019-02-08T09:29:29.542Z,27.87
2019-02-08T09:32:31.802Z,30.67
2019-02-08T09:35:28.939Z,29.80
2019-02-08T09:38:31.982Z,31.57
2019-02-08T09:41:44.034Z,29.43
2019-02-08T09:44:58.919Z,27.90
2019-02-08T09:48:10.881Z,26.57
2019-02-08T09:51:47.184Z,26.43
2019-02-08T09:54:59.479Z,27.53
2019-02-08T09:58:03.858Z,26.27
2019-02-08T10:01:17.219Z,27.13
2019-02-08T10:04:20.306Z,25.80
2019-02-08T10:07:45.755Z,29.80
2019-02-08T10:11:08.377Z,29.10
2019-02-08T10:14:27.570Z,20.17
2019-02-08T10:17:36.590Z,22.00
2019-02-08T10:20:47.273Z,18.82
2019-02-08T10:24:08.602Z,19.63
2019-02-08T10:26:57.670Z,17.30
2019-02-08T10:30:25.344Z,6.17
2019-02-08T10:33:38.700Z,0.00
2019-02-08T10:36:43.806Z,0.23
2019-02-08T10:39:38.670Z,0.00
2019-02-08T10:42:48.322Z,0.00
2019-02-08T10:45:53.199Z,0.00
2019-02-08T10:49:05.453Z,0.00
2019-02-08T10:52:36.861Z,0.20
2019-02-08T10:55:58.021Z,0.43
2019-02-08T10:59:13.583Z,0.00
2019-02-08T11:02:21.025Z,0.93
2019-02-08T11:05:44.041Z,0.00
2019-02-08T11:08:48.826Z,0.00
2019-02-08T11:12:04.358Z,0.00
2019-02-08T11:15:25.852Z,0.00
2019-02-08T11:18:44.223Z,0.00
2019-02-08T11:21:13.307Z,0.00
2019-02-08T11:23:42.325Z,0.27
2019-02-08T11:26:11.390Z,0.00
2019-02-08T11:28:40.543Z,0.00
2019-02-08T11:31:09.866Z,0.00
2019-02-08T11:33:38.923Z,0.00
2019-02-08T11:36:08.316Z,0.00
2019-02-08T11:38:37.258Z,0.00
2019-02-08T11:41:06.350Z,0.00
2019-02-08T11:43:35.394Z,0.00
2019-02-08T11:46:04.864Z,0.00
2019-02-08T11:48:33.904Z,0.00
2019-02-08T11:51:03.022Z,0.00
2019-02-08T11:53:32.006Z,0.00
2019-02-08T11:56:01.102Z,0.00
2019-02-08T11:58:30.313Z,0.00
2019-02-08T12:00:59.409Z,0.00
2019-02-08T12:03:28.508Z,0.00
2019-02-08T12:05:57.596Z,0.00
2019-02-08T12:08:26.610Z,0.27
2019-02-08T12:10:55.697Z,0.00
2019-02-08T12:13:24.672Z,0.00
2019-02-08T12:15:53.741Z,0.00
2019-02-08T12:18:22.771Z,0.00
2019-02-08T12:20:52.128Z,0.00
2019-02-08T12:23:21.321Z,0.73
2019-02-08T12:25:50.968Z,0.00
2019-02-08T12:28:20.351Z,2.20
2019-02-08T12:30:49.910Z,0.83
2019-02-08T12:33:19.170Z,0.00
2019-02-08T12:35:49.730Z,0.00
2019-02-08T12:38:19.422Z,0.00
2019-02-08T12:40:49.187Z,0.87
2019-02-08T12:43:18.657Z,2.33
2019-02-08T12:45:48.138Z,0.00
2019-02-08T12:48:17.494Z,0.00
2019-02-08T12:50:46.938Z,0.00
2019-02-08T12:53:16.301Z,0.00
2019-02-08T12:55:45.559Z,0.00
2019-02-08T12:58:14.796Z,0.00
2019-02-08T13:00:44.195Z,0.00
2019-02-08T13:03:13.666Z,1.30
2019-02-08T13:05:42.860Z,0.00
2019-02-08T13:08:12.044Z,0.00
2019-02-08T13:10:41.282Z,0.00
2019-02-08T13:13:11.513Z,0.00
2019-02-08T13:15:40.725Z,0.00
2019-02-08T13:18:10.090Z,0.00
2019-02-08T13:20:39.502Z,0.00
2019-02-08T13:23:08.677Z,0.60
2019-02-08T13:25:38.024Z,1.23
2019-02-08T13:28:07.497Z,0.00
2019-02-08T13:30:36.995Z,0.00
2019-02-08T13:33:06.621Z,0.07
2019-02-08T13:35:40.762Z,0.17
2019-02-08T13:38:10.113Z,0.00
2019-02-08T13:40:39.326Z,0.10
2019-02-08T13:43:08.735Z,0.00
2019-02-08T13:45:37.959Z,0.73
2019-02-08T13:48:07.171Z,0.00
2019-02-08T13:50:36.576Z,0.00
2019-02-08T13:53:06.158Z,0.00
2019-02-08T13:55:35.495Z,0.00
2019-02-08T13:58:06.129Z,0.00
2019-02-08T14:00:36.754Z,0.00
2019-02-08T14:03:06.944Z,0.00
2019-02-08T14:05:36.265Z,0.00
2019-02-08T14:08:05.877Z,0.00
2019-02-08T14:10:35.136Z,0.00
2019-02-08T14:13:04.835Z,0.00
2019-02-08T14:15:34.554Z,0.00
2019-02-08T14:18:03.953Z,0.00
2019-02-08T14:20:33.191Z,0.00
2019-02-08T14:23:02.505Z,0.00
2019-02-08T14:25:31.463Z,0.40
2019-02-08T14:28:00.669Z,0.00
2019-02-08T14:30:32.236Z,0.00
2019-02-08T14:33:01.390Z,0.00
2019-02-08T14:35:30.544Z,0.00
2019-02-08T14:38:01.273Z,0.00
2019-02-08T14:40:30.484Z,0.00
2019-02-08T14:42:59.661Z,0.00
2019-02-08T14:45:28.768Z,0.00
2019-02-08T14:47:58.972Z,0.00
2019-02-08T14:50:28.291Z,0.00
2019-02-08T14:52:57.489Z,0.00
2019-02-08T14:55:26.688Z,0.00
2019-02-08T14:57:56.403Z,0.00
2019-02-08T15:00:25.554Z,0.00
2019-02-08T15:02:54.605Z,1.50
2019-02-08T15:05:24.111Z,0.00
2019-02-08T15:07:53.924Z,0.00
2019-02-08T15:10:28.958Z,0.93
2019-02-08T15:13:00.376Z,0.00
2019-02-08T15:15:29.681Z,0.00
2019-02-08T15:17:58.895Z,0.00
2019-02-08T15:20:29.970Z,0.00
2019-02-08T15:22:59.313Z,0.00
2019-02-08T15:25:28.527Z,0.00
2019-02-08T15:27:57.622Z,0.23
2019-02-08T15:30:28.968Z,0.10
2019-02-08T15:32:58.229Z,0.00
2019-02-08T15:35:27.792Z,0.00
2019-02-08T15:37:56.950Z,0.00
2019-02-08T15:40:29.465Z,0.00
2019-02-08T15:42:58.466Z,0.00
2019-02-08T15:45:27.569Z,3.40
2019-02-08T15:47:56.695Z,0.00
2019-02-08T15:50:26.087Z,0.00
2019-02-08T15:52:57.266Z,0.00
2019-02-08T15:55:34.422Z,0.00
2019-02-08T15:58:04.540Z,0.00
2019-02-08T16:00:33.900Z,0.00
2019-02-08T16:03:03.046Z,0.00
2019-02-08T16:05:33.251Z,0.00
2019-02-08T16:08:02.636Z,0.00
2019-02-08T16:10:32.079Z,0.00
2019-02-08T16:13:01.555Z,0.00
2019-02-08T16:15:30.855Z,0.00
2019-02-08T16:18:00.143Z,0.00
2019-02-08T16:20:29.478Z,0.10
2019-02-08T16:22:58.612Z,0.00
2019-02-08T16:25:29.735Z,0.00
2019-02-08T16:27:59.083Z,0.00
2019-02-08T16:30:29.688Z,0.00
2019-02-08T16:32:58.903Z,0.00
2019-02-08T16:35:28.419Z,0.25
2019-02-08T16:37:57.657Z,0.00
2019-02-08T16:40:27.945Z,0.00
2019-02-08T16:42:57.074Z,0.00
2019-02-08T16:45:32.010Z,0.00
2019-02-08T16:48:01.843Z,0.00
2019-02-08T16:50:31.641Z,0.00
2019-02-08T16:53:00.713Z,0.00
2019-02-08T16:55:29.839Z,0.77
2019-02-08T16:57:58.966Z,0.37
2019-02-08T17:00:30.209Z,0.00
2019-02-08T17:03:00.361Z,0.00
2019-02-08T17:05:30.627Z,0.10
2019-02-08T17:07:59.642Z,0.00
2019-02-08T17:10:28.886Z,0.00
2019-02-08T17:12:58.153Z,0.00
2019-02-08T17:15:27.935Z,0.00
2019-02-08T17:17:57.396Z,0.53
2019-02-08T17:20:31.781Z,0.00
2019-02-08T17:23:00.951Z,0.00
2019-02-08T17:25:30.515Z,0.00
2019-02-08T17:28:00.309Z,0.00
2019-02-08T17:30:29.335Z,0.00
2019-02-08T17:32:58.473Z,0.00
2019-02-08T17:35:28.120Z,0.00
2019-02-08T17:37:57.274Z,0.03
2019-02-08T17:40:28.156Z,0.00
2019-02-08T17:42:57.233Z,2.17
2019-02-08T17:45:26.324Z,0.00
2019-02-08T17:47:56.429Z,0.00
2019-02-08T17:50:26.013Z,0.00
2019-02-08T17:52:55.051Z,0.00
2019-02-08T17:55:24.920Z,0.30
2019-02-08T17:57:54.023Z,0.00
2019-02-08T18:00:28.062Z,0.00
2019-02-08T18:02:57.186Z,0.00
2019-02-08T18:05:26.110Z,0.00
2019-02-08T18:07:55.155Z,0.20
2019-02-08T18:10:24.644Z,0.00
2019-02-08T18:12:53.701Z,0.00
2019-02-08T18:15:22.693Z,0.00
2019-02-08T18:17:51.766Z,0.00
2019-02-08T18:20:23.798Z,0.00
2019-02-08T18:22:52.825Z,0.00
2019-02-08T18:25:21.945Z,2.03
2019-02-08T18:27:50.925Z,0.00
2019-02-08T18:30:20.849Z,0.00
2019-02-08T18:32:49.925Z,0.00
2019-02-08T18:35:18.992Z,0.00
2019-02-08T18:37:48.125Z,0.00
2019-02-08T18:40:18.470Z,0.00
2019-02-08T18:42:47.561Z,0.00
2019-02-08T18:45:24.965Z,0.00
2019-02-08T18:47:53.967Z,0.00
2019-02-08T18:50:25.107Z,0.00
2019-02-08T18:52:54.213Z,0.00
2019-02-08T18:55:23.317Z,0.00
2019-02-08T18:57:52.446Z,0.00
2019-02-08T19:00:24.527Z,0.00
2019-02-08T19:02:53.592Z,0.00
2019-02-08T19:05:22.748Z,0.00
2019-02-08T19:07:54.214Z,0.00
2019-02-08T19:10:23.499Z,0.00
2019-02-08T19:12:52.526Z,0.00
2019-02-08T19:15:22.493Z,0.00
2019-02-08T19:17:52.917Z,0.00
2019-02-08T19:20:23.242Z,0.00
2019-02-08T19:22:52.389Z,0.00
2019-02-08T19:25:26.561Z,0.00
2019-02-08T19:27:55.633Z,8.07
2019-02-08T19:30:27.087Z,10.40
2019-02-08T19:32:56.238Z,10.20
2019-02-08T19:35:25.389Z,7.93
2019-02-08T19:37:54.369Z,7.00
2019-02-08T19:40:25.941Z,9.27
2019-02-08T19:42:55.045Z,7.53
2019-02-08T19:45:24.160Z,6.57
2019-02-08T19:47:53.215Z,13.33
2019-02-08T19:50:24.435Z,12.37
2019-02-08T19:52:53.585Z,10.97
2019-02-08T19:55:24.378Z,11.80
2019-02-08T19:57:53.450Z,11.27
2019-02-08T20:00:23.932Z,11.57
2019-02-08T20:02:52.954Z,10.73
2019-02-08T20:05:23.056Z,10.70
2019-02-08T20:07:53.236Z,11.03
2019-02-08T20:10:33.658Z,12.80
2019-02-08T20:13:02.733Z,11.03
2019-02-08T20:15:32.319Z,14.20
2019-02-08T20:18:01.367Z,13.57
2019-02-08T20:20:31.126Z,16.37
2019-02-08T20:23:00.221Z,16.53
2019-02-08T20:25:31.390Z,19.77
2019-02-08T20:28:00.657Z,21.93
2019-02-08T20:30:30.625Z,21.37
2019-02-08T20:32:59.751Z,23.50
2019-02-08T20:35:28.943Z,22.53
2019-02-08T20:37:59.451Z,24.60
2019-02-08T20:40:34.008Z,24.60
2019-02-08T20:43:03.058Z,25.50
2019-02-08T20:45:32.664Z,26.73
2019-02-08T20:48:05.102Z,27.70
2019-02-08T20:50:34.234Z,26.40
2019-02-08T20:53:05.684Z,27.73
2019-02-08T20:55:34.831Z,25.83
2019-02-08T20:58:08.846Z,26.70
2019-02-08T21:00:38.793Z,28.23
2019-02-08T21:03:15.168Z,26.83
2019-02-08T21:05:48.191Z,28.23
2019-02-08T21:08:18.973Z,28.87
2019-02-08T21:10:48.209Z,30.87
2019-02-08T21:13:17.521Z,28.40
2019-02-08T21:15:47.682Z,28.57
2019-02-08T21:18:16.719Z,30.77
2019-02-08T21:20:47.305Z,33.33
2019-02-08T21:23:16.833Z,30.97
2019-02-08T21:25:51.886Z,28.87
2019-02-08T21:28:16.690Z,31.43
2019-02-08T21:30:45.860Z,32.00
2019-02-08T21:33:15.037Z,33.07
2019-02-08T21:35:44.362Z,30.87
2019-02-08T21:38:14.611Z,29.93
2019-02-08T21:40:43.723Z,32.77
2019-02-08T21:43:13.065Z,32.43
2019-02-08T21:45:43.788Z,32.13
2019-02-08T21:48:13.517Z,29.80
2019-02-08T21:50:42.843Z,33.73
2019-02-08T21:53:14.884Z,32.57
2019-02-08T21:55:45.121Z,32.67
2019-02-08T21:58:15.843Z,32.40
2019-02-08T22:00:45.347Z,35.17
2019-02-08T22:03:14.485Z,36.33
2019-02-08T22:05:56.162Z,33.67
2019-02-08T22:08:25.641Z,33.80
2019-02-08T22:10:57.743Z,33.53
2019-02-08T22:13:27.242Z,34.83
2019-02-08T22:15:57.637Z,34.30
2019-02-08T22:18:26.810Z,35.40
2019-02-08T22:20:56.749Z,34.63
2019-02-08T22:23:26.002Z,36.67
2019-02-08T22:25:58.474Z,36.53
2019-02-08T22:28:27.852Z,33.83
2019-02-08T22:30:57.216Z,37.83
2019-02-08T22:33:26.522Z,32.73
2019-02-08T22:35:56.082Z,34.63
2019-02-08T22:38:26.677Z,35.50
2019-02-08T22:40:55.983Z,34.53
2019-02-08T22:43:25.599Z,37.73
2019-02-08T22:45:54.922Z,32.93
2019-02-08T22:48:24.133Z,33.27
2019-02-08T22:50:53.551Z,36.80
2019-02-08T22:53:22.669Z,32.13
2019-02-08T22:55:51.854Z,33.70
2019-02-08T22:58:20.817Z,34.37
2019-02-08T23:01:30.100Z,33.67
2019-02-08T23:04:05.416Z,32.80
2019-02-08T23:06:34.593Z,31.80
2019-02-08T23:09:05.262Z,31.00
2019-02-08T23:11:34.269Z,33.63
2019-02-08T23:14:03.385Z,31.33
2019-02-08T23:16:32.530Z,35.13
2019-02-08T23:19:01.565Z,32.50
2019-02-08T23:21:30.643Z,31.83
2019-02-08T23:24:00.130Z,31.20
2019-02-08T23:26:29.134Z,30.92
2019-02-08T23:28:58.172Z,30.33
2019-02-08T23:31:27.185Z,31.43
2019-02-08T23:33:56.246Z,33.07
2019-02-08T23:36:25.376Z,30.60
2019-02-08T23:38:54.446Z,29.67
2019-02-08T23:41:23.545Z,28.10
2019-02-08T23:43:52.601Z,30.03
2019-02-08T23:46:21.629Z,27.87
2019-02-08T23:48:50.669Z,28.83
2019-02-08T23:51:19.773Z,29.50
2019-02-08T23:53:48.904Z,29.30
2019-02-08T23:56:17.933Z,29.57
2019-02-08T23:58:47.081Z,31.07
